Time;durP1;ratioP1;P1;durP2;ratioP2;P2;SDS_P1;SDS_P2;PMS_P1;PMS_P2;Temp;Humidity;BMP_temperature;BMP_pressure;BME280_temperature;BME280_humidity;BME280_pressure;Samples;Min_cycle;Max_cycle;Signal;HPM_P1;HPM_P2
2022/01/01 00:02:01;;;;;;;23.70;9.55;;;11.60;86.10;;;;;;5021413;28;20502;-83
2022/01/01 00:04:28;;;;;;;19.85;9.85;;;11.50;86.10;;;;;;5015986;28;20053;-83
2022/01/01 00:06:56;;;;;;;18.67;9.43;;;11.50;86.10;;;;;;5012841;28;20056;-83
2022/01/01 00:09:23;;;;;;;20.17;9.75;;;11.50;86.10;;;;;;5013976;28;20049;-83
2022/01/01 00:11:50;;;;;;;19.67;9.57;;;11.50;86.10;;;;;;5026200;28;20045;-84
2022/01/01 00:14:17;;;;;;;18.20;9.80;;;11.50;86.20;;;;;;5019608;28;20041;-83
2022/01/01 00:16:44;;;;;;;17.33;9.65;;;11.50;86.20;;;;;;5015483;28;20108;-84
2022/01/01 00:19:11;;;;;;;21.48;10.32;;;11.50;86.20;;;;;;5013470;28;20041;-84
2022/01/01 00:21:40;;;;;;;22.55;10.15;;;11.50;86.20;;;;;;5031951;28;20068;-84
2022/01/01 00:24:07;;;;;;;15.95;10.10;;;11.40;86.20;;;;;;5020214;28;20049;-83
2022/01/01 00:26:34;;;;;;;15.85;9.18;;;11.40;86.20;;;;;;5020144;28;20053;-83
2022/01/01 00:29:02;;;;;;;19.13;9.95;;;11.40;86.20;;;;;;5019688;28;20413;-83
2022/01/01 00:31:29;;;;;;;23.83;10.45;;;11.40;86.20;;;;;;5018490;28;20490;-83
2022/01/01 00:33:57;;;;;;;18.38;10.60;;;11.40;86.20;;;;;;5032114;28;20055;-83
2022/01/01 00:36:25;;;;;;;19.17;10.05;;;11.40;86.20;;;;;;5031718;28;20052;-83
2022/01/01 00:38:52;;;;;;;22.50;11.07;;;11.40;86.20;;;;;;5030457;28;20053;-84
2022/01/01 00:41:19;;;;;;;21.75;11.52;;;11.40;86.30;;;;;;5028643;28;20041;-83
2022/01/01 00:43:46;;;;;;;20.27;11.80;;;11.40;86.30;;;;;;5028710;28;20052;-84
2022/01/01 00:46:13;;;;;;;20.90;11.82;;;11.40;86.30;;;;;;5029100;28;20042;-83
2022/01/01 00:48:40;;;;;;;18.42;11.80;;;11.40;86.30;;;;;;5032483;28;20049;-83
2022/01/01 00:51:26;;;;;;;24.08;12.48;;;11.40;86.30;;;;;;5031274;28;20053;-83
2022/01/01 00:53:53;;;;;;;24.50;14.23;;;11.30;86.30;;;;;;5020277;28;20042;-83
2022/01/01 00:56:20;;;;;;;22.55;13.35;;;11.30;86.30;;;;;;5028693;28;20045;-83
2022/01/01 00:58:47;;;;;;;25.40;14.32;;;11.30;86.40;;;;;;5033055;28;20048;-83
2022/01/01 01:01:14;;;;;;;27.88;14.95;;;11.30;86.40;;;;;;5035818;28;20057;-83
2022/01/01 01:03:42;;;;;;;25.95;13.98;;;11.30;86.40;;;;;;5035993;28;20073;-83
2022/01/01 01:06:12;;;;;;;23.27;14.38;;;11.30;86.40;;;;;;5034952;28;20099;-83
2022/01/01 01:08:39;;;;;;;27.63;14.77;;;11.30;86.40;;;;;;5036019;28;20506;-83
2022/01/01 01:11:08;;;;;;;25.38;15.05;;;11.30;86.50;;;;;;5035836;28;20048;-83
2022/01/01 01:13:38;;;;;;;24.05;14.77;;;11.30;86.50;;;;;;5035655;28;20045;-83
2022/01/01 01:16:06;;;;;;;26.67;15.65;;;11.30;86.50;;;;;;5035442;28;20080;-83
2022/01/01 01:18:33;;;;;;;24.85;15.55;;;11.20;86.50;;;;;;5035735;28;20561;-83
2022/01/01 01:21:00;;;;;;;24.20;15.85;;;11.20;86.50;;;;;;5034758;28;20045;-83
2022/01/01 01:23:27;;;;;;;24.13;15.55;;;11.20;86.50;;;;;;5035465;28;20473;-83
2022/01/01 01:25:56;;;;;;;26.02;16.25;;;11.20;86.60;;;;;;5035523;28;20124;-83
2022/01/01 01:28:23;;;;;;;22.60;16.25;;;11.20;86.60;;;;;;5035419;28;20051;-83
2022/01/01 01:30:50;;;;;;;23.02;15.98;;;11.20;86.60;;;;;;5034312;28;20044;-84
2022/01/01 01:33:18;;;;;;;23.67;16.15;;;11.20;86.60;;;;;;5034258;28;20051;-84
2022/01/01 01:35:45;;;;;;;23.25;16.60;;;11.20;86.60;;;;;;5036898;28;20509;-83
2022/01/01 01:38:12;;;;;;;23.83;15.77;;;11.20;86.70;;;;;;5035211;28;20041;-84
2022/01/01 01:40:39;;;;;;;25.02;17.63;;;11.20;86.70;;;;;;5035228;28;20080;-83
2022/01/01 01:43:10;;;;;;;25.15;17.92;;;11.20;86.70;;;;;;5035316;28;20053;-83
2022/01/01 01:45:37;;;;;;;24.10;18.27;;;11.20;86.70;;;;;;5034922;28;20140;-84
2022/01/01 01:48:05;;;;;;;22.83;18.20;;;11.20;86.80;;;;;;5034271;28;20568;-83
2022/01/01 01:50:33;;;;;;;28.58;19.17;;;11.10;86.80;;;;;;5035070;28;20045;-83
2022/01/01 01:53:01;;;;;;;26.35;18.73;;;11.10;86.80;;;;;;5035086;28;20045;-84
2022/01/01 01:55:28;;;;;;;27.88;19.63;;;11.10;86.90;;;;;;5034856;28;20418;-83
2022/01/01 01:57:57;;;;;;;26.92;19.65;;;11.10;86.90;;;;;;5034899;28;20438;-84
2022/01/01 02:02:52;;;;;;;29.88;19.80;;;11.20;86.90;;;;;;5034542;28;20073;-84
2022/01/01 02:05:20;;;;;;;25.85;19.27;;;11.10;87.00;;;;;;5034512;28;20171;-84
2022/01/01 02:07:49;;;;;;;26.50;19.85;;;11.10;87.00;;;;;;5034715;28;20041;-84
2022/01/01 02:10:17;;;;;;;27.45;19.88;;;11.10;87.00;;;;;;5034434;28;20510;-83
2022/01/01 02:12:50;;;;;;;28.63;19.85;;;11.10;87.00;;;;;;5034659;28;20536;-84
2022/01/01 02:18:24;;;;;;;29.25;19.55;;;11.10;87.10;;;;;;4994814;28;20714;-84
2022/01/01 02:20:51;;;;;;;28.67;19.67;;;11.10;87.10;;;;;;4997110;28;20050;-84
2022/01/01 02:23:22;;;;;;;32.63;20.52;;;11.10;87.10;;;;;;4997115;28;20052;-84
2022/01/01 02:25:50;;;;;;;32.47;20.92;;;11.20;87.10;;;;;;4997241;28;20054;-83
2022/01/01 02:28:18;;;;;;;40.55;21.60;;;11.10;87.10;;;;;;4996501;28;20052;-84
2022/01/01 02:30:45;;;;;;;29.25;21.20;;;11.10;87.20;;;;;;4977313;28;20054;-84
2022/01/01 02:33:12;;;;;;;34.15;21.48;;;11.10;87.20;;;;;;5003197;28;20069;-84
2022/01/01 02:35:39;;;;;;;33.92;22.08;;;11.10;87.20;;;;;;4997143;28;20065;-84
2022/01/01 02:38:07;;;;;;;36.97;22.52;;;11.20;87.20;;;;;;4996981;28;20065;-84
2022/01/01 02:40:36;;;;;;;35.13;22.65;;;11.20;87.20;;;;;;4996826;28;20462;-83
2022/01/01 02:43:03;;;;;;;34.38;22.20;;;11.20;87.20;;;;;;4994045;28;20046;-83
2022/01/01 02:45:30;;;;;;;37.25;21.48;;;11.20;87.20;;;;;;4994354;28;20050;-83
2022/01/01 02:47:58;;;;;;;33.28;21.40;;;11.20;87.30;;;;;;4996133;28;20070;-83
2022/01/01 02:50:25;;;;;;;34.55;22.42;;;11.20;87.20;;;;;;4996772;28;20166;-83
2022/01/01 02:52:52;;;;;;;33.50;21.42;;;11.20;87.30;;;;;;4996672;28;20061;-84
2022/01/01 02:55:19;;;;;;;40.88;22.17;;;11.20;87.30;;;;;;5013766;28;20469;-83
2022/01/01 02:57:46;;;;;;;33.17;22.30;;;11.20;87.30;;;;;;5033644;28;20080;-83
2022/01/01 03:00:14;;;;;;;40.05;22.52;;;11.20;87.30;;;;;;5028794;28;20049;-84
2022/01/01 03:02:41;;;;;;;37.40;21.85;;;11.20;87.30;;;;;;5032593;28;20059;-83
2022/01/01 03:05:08;;;;;;;33.90;22.65;;;11.20;87.30;;;;;;5033426;28;20148;-84
2022/01/01 03:07:36;;;;;;;33.72;21.95;;;11.20;87.30;;;;;;5033577;28;20497;-84
2022/01/01 03:10:04;;;;;;;34.67;21.55;;;11.20;87.30;;;;;;5033484;28;20532;-84
2022/01/01 03:12:31;;;;;;;30.17;20.38;;;11.20;87.30;;;;;;5033300;28;20049;-84
2022/01/01 03:14:58;;;;;;;33.67;20.80;;;11.20;87.30;;;;;;5031572;28;20506;-84
2022/01/01 03:17:25;;;;;;;33.25;21.23;;;11.20;87.30;;;;;;5033376;28;20053;-83
2022/01/01 03:19:52;;;;;;;29.20;20.35;;;11.20;87.30;;;;;;5033443;28;20136;-83
2022/01/01 03:22:19;;;;;;;33.22;21.95;;;11.20;87.30;;;;;;5033397;28;20155;-83
2022/01/01 03:24:46;;;;;;;32.50;20.73;;;11.20;87.30;;;;;;5033365;28;20044;-84
2022/01/01 03:27:13;;;;;;;33.17;19.52;;;11.20;87.40;;;;;;5028171;28;20050;-83
2022/01/01 03:29:40;;;;;;;36.00;21.00;;;11.20;87.30;;;;;;5033131;28;20056;-84
2022/01/01 03:32:07;;;;;;;30.92;18.73;;;11.20;87.40;;;;;;5033153;28;20053;-83
2022/01/01 03:34:34;;;;;;;38.83;21.05;;;11.20;87.40;;;;;;5033290;28;20045;-84
2022/01/01 03:37:02;;;;;;;31.00;20.58;;;11.20;87.40;;;;;;5065184;28;20056;-84
2022/01/01 03:39:29;;;;;;;35.58;20.55;;;11.20;87.40;;;;;;5032998;28;20060;-84
2022/01/01 03:41:56;;;;;;;35.45;20.90;;;11.20;87.40;;;;;;5031962;28;20068;-84
2022/01/01 03:44:23;;;;;;;31.05;20.80;;;11.20;87.40;;;;;;5033065;28;20056;-84
2022/01/01 03:46:52;;;;;;;34.55;21.02;;;11.20;87.50;;;;;;5032816;28;20522;-84
2022/01/01 03:49:19;;;;;;;38.08;20.80;;;11.20;87.50;;;;;;5032915;28;20532;-84
2022/01/01 03:51:47;;;;;;;36.30;21.52;;;11.20;87.50;;;;;;5033359;28;20055;-84
2022/01/01 03:54:16;;;;;;;38.10;22.10;;;11.20;87.50;;;;;;5028196;28;20052;-84
2022/01/01 03:56:44;;;;;;;36.80;22.23;;;11.20;87.60;;;;;;5038438;28;20136;-84
2022/01/01 03:59:10;;;;;;;40.90;22.45;;;11.20;87.60;;;;;;5036958;28;20046;-84
2022/01/01 04:01:37;;;;;;;39.83;23.95;;;11.20;87.60;;;;;;5037000;28;20049;-83
2022/01/01 04:04:05;;;;;;;36.15;23.35;;;11.20;87.60;;;;;;5037176;28;20045;-84
2022/01/01 04:06:32;;;;;;;40.88;23.00;;;11.20;87.70;;;;;;5036761;28;20067;-84
2022/01/01 04:08:59;;;;;;;43.60;23.75;;;11.20;87.70;;;;;;5035694;28;20053;-83
2022/01/01 04:11:26;;;;;;;34.92;22.17;;;11.20;87.70;;;;;;5036700;28;20433;-83
2022/01/01 04:13:53;;;;;;;40.60;23.60;;;11.20;87.70;;;;;;5036895;28;20045;-84
2022/01/01 04:16:21;;;;;;;41.55;23.60;;;11.20;87.70;;;;;;5036862;28;20056;-83
2022/01/01 04:18:48;;;;;;;45.58;24.95;;;11.20;87.80;;;;;;5036731;28;20045;-84
2022/01/01 04:21:16;;;;;;;49.42;24.10;;;11.30;87.80;;;;;;5036182;28;20071;-83
2022/01/01 04:23:46;;;;;;;44.40;24.88;;;11.30;87.80;;;;;;5037738;28;20060;-83
2022/01/01 04:26:13;;;;;;;39.97;23.67;;;11.30;87.80;;;;;;5036533;28;20056;-84
2022/01/01 04:28:41;;;;;;;43.42;25.77;;;11.30;87.80;;;;;;5036537;28;20053;-83
2022/01/01 04:31:08;;;;;;;45.85;25.50;;;11.30;87.90;;;;;;5036737;28;20045;-84
2022/01/01 04:33:36;;;;;;;43.80;25.38;;;11.30;87.90;;;;;;5036715;28;20041;-84
2022/01/01 04:36:03;;;;;;;40.97;23.65;;;11.30;87.90;;;;;;5035596;28;20049;-84
2022/01/01 04:41:01;;;;;;;46.78;26.83;;;11.30;87.90;;;;;;5036326;28;20045;-83
2022/01/01 04:43:28;;;;;;;41.20;25.67;;;11.30;87.90;;;;;;5036324;28;20043;-84
2022/01/01 04:45:55;;;;;;;49.00;26.52;;;11.30;88.00;;;;;;5036109;28;20053;-83
2022/01/01 04:48:23;;;;;;;45.20;26.80;;;11.40;88.00;;;;;;5035442;28;20053;-84
2022/01/01 04:50:50;;;;;;;46.97;26.58;;;11.40;88.00;;;;;;5036617;28;20059;-84
2022/01/01 04:53:18;;;;;;;45.22;26.33;;;11.40;88.00;;;;;;5035686;28;20514;-83
2022/01/01 04:55:47;;;;;;;50.33;27.27;;;11.40;88.00;;;;;;5036161;28;20441;-84
2022/01/01 04:58:14;;;;;;;48.92;26.58;;;11.40;88.00;;;;;;5036063;28;20045;-83
2022/01/01 05:00:41;;;;;;;46.42;26.10;;;11.40;88.00;;;;;;5036018;28;20052;-84
2022/01/01 05:03:08;;;;;;;47.63;26.70;;;11.40;88.00;;;;;;5035288;28;20046;-83
2022/01/01 05:05:35;;;;;;;53.22;28.05;;;11.40;88.00;;;;;;5035243;28;20061;-83
2022/01/01 05:08:02;;;;;;;47.42;27.00;;;11.40;88.00;;;;;;5035580;28;20049;-84
2022/01/01 05:10:29;;;;;;;50.38;27.25;;;11.40;88.00;;;;;;5035840;28;20051;-84
2022/01/01 05:12:56;;;;;;;53.67;28.73;;;11.40;88.00;;;;;;5035692;28;20042;-84
2022/01/01 05:15:23;;;;;;;50.50;27.27;;;11.40;88.00;;;;;;5034861;28;20513;-84
2022/01/01 05:17:50;;;;;;;54.70;27.92;;;11.40;88.00;;;;;;5035586;28;20414;-84
2022/01/01 05:20:17;;;;;;;58.05;27.98;;;11.40;88.00;;;;;;5035522;28;20045;-84
2022/01/01 05:22:44;;;;;;;50.30;27.30;;;11.40;88.00;;;;;;5035098;28;20052;-83
2022/01/01 05:25:11;;;;;;;50.95;27.33;;;11.40;88.10;;;;;;5035458;28;20045;-84
2022/01/01 05:27:38;;;;;;;49.70;27.08;;;11.50;88.10;;;;;;5035578;28;20441;-84
2022/01/01 05:30:07;;;;;;;50.90;27.33;;;11.40;88.00;;;;;;5034645;28;20517;-83
2022/01/01 05:32:34;;;;;;;50.13;26.77;;;11.40;88.10;;;;;;5035436;28;20046;-84
2022/01/01 05:35:01;;;;;;;51.60;28.20;;;11.50;88.00;;;;;;5035205;28;20045;-84
2022/01/01 05:37:28;;;;;;;51.28;28.15;;;11.40;88.00;;;;;;5034852;28;20045;-83
2022/01/01 05:39:55;;;;;;;61.10;28.25;;;11.40;88.10;;;;;;5035399;28;20041;-84
2022/01/01 05:42:22;;;;;;;52.10;27.05;;;11.40;88.00;;;;;;5034353;28;20055;-83
2022/01/01 05:44:49;;;;;;;49.17;26.77;;;11.40;88.00;;;;;;5035564;28;20051;-83
2022/01/01 05:47:16;;;;;;;47.30;28.33;;;11.50;88.00;;;;;;5034991;28;20103;-83
2022/01/01 05:49:43;;;;;;;51.97;26.70;;;11.50;88.00;;;;;;5034948;28;20057;-84
2022/01/01 05:52:10;;;;;;;56.05;28.10;;;11.40;88.00;;;;;;5034845;28;20045;-83
2022/01/01 05:54:37;;;;;;;53.92;28.42;;;11.50;88.00;;;;;;5035045;28;20057;-83
2022/01/01 05:57:04;;;;;;;50.80;27.98;;;11.50;88.00;;;;;;5034239;28;20056;-84
2022/01/01 05:59:31;;;;;;;53.42;28.85;;;11.50;88.00;;;;;;5034727;28;20045;-83
2022/01/01 06:01:58;;;;;;;60.50;29.35;;;11.40;88.00;;;;;;5034758;28;20510;-83
2022/01/01 06:04:25;;;;;;;52.95;29.23;;;11.40;88.00;;;;;;5034623;28;20048;-83
2022/01/01 06:06:52;;;;;;;54.45;29.08;;;11.40;88.00;;;;;;5034189;28;20081;-83
2022/01/01 06:09:19;;;;;;;48.22;28.17;;;11.40;88.00;;;;;;5034028;28;20041;-83
2022/01/01 06:11:46;;;;;;;49.05;27.92;;;11.40;88.00;;;;;;5034728;28;20516;-83
2022/01/01 06:14:16;;;;;;;52.10;29.10;;;11.40;88.00;;;;;;5034628;28;20524;-84
2022/01/01 06:16:43;;;;;;;52.47;28.65;;;11.40;88.00;;;;;;5034524;28;20068;-83
2022/01/01 06:19:10;;;;;;;49.78;28.50;;;11.40;88.00;;;;;;5033930;28;20064;-84
2022/01/01 06:21:37;;;;;;;50.80;29.02;;;11.40;88.00;;;;;;5034297;28;20143;-83
2022/01/01 06:24:05;;;;;;;49.47;29.23;;;11.40;88.00;;;;;;5033524;28;20057;-83
2022/01/01 06:26:37;;;;;;;49.67;28.33;;;11.40;88.00;;;;;;5034302;28;20509;-83
2022/01/01 06:29:04;;;;;;;50.72;28.77;;;11.40;87.90;;;;;;5034295;28;20052;-83
2022/01/01 06:31:31;;;;;;;52.50;28.58;;;11.40;87.90;;;;;;5034256;28;20049;-83
2022/01/01 06:33:58;;;;;;;51.55;28.52;;;11.40;87.90;;;;;;5033944;28;20411;-83
2022/01/01 06:36:27;;;;;;;50.28;28.83;;;11.40;87.90;;;;;;5032544;28;20085;-83
2022/01/01 06:38:54;;;;;;;51.85;27.45;;;11.40;87.90;;;;;;5033426;28;20042;-84
2022/01/01 06:41:24;;;;;;;48.88;27.55;;;11.40;87.90;;;;;;5034202;28;20053;-83
2022/01/01 06:43:52;;;;;;;56.92;29.20;;;11.40;87.90;;;;;;5033949;28;20052;-83
2022/01/01 06:46:19;;;;;;;57.05;28.60;;;11.40;87.90;;;;;;5034057;28;20049;-83
2022/01/01 06:48:47;;;;;;;52.13;28.85;;;11.40;87.90;;;;;;5017999;28;20098;-83
2022/01/01 06:51:14;;;;;;;53.58;29.05;;;11.40;87.90;;;;;;5028117;28;20049;-83
2022/01/01 06:53:41;;;;;;;52.65;28.70;;;11.30;87.90;;;;;;5033790;28;20057;-83
2022/01/01 06:56:09;;;;;;;55.55;29.33;;;11.40;87.80;;;;;;5033842;28;20041;-83
2022/01/01 06:58:37;;;;;;;52.65;27.98;;;11.40;87.90;;;;;;5033813;28;20049;-83
2022/01/01 07:01:05;;;;;;;50.35;28.27;;;11.30;87.90;;;;;;5033695;28;20055;-83
2022/01/01 07:03:32;;;;;;;49.05;27.92;;;11.30;87.80;;;;;;5033486;28;20058;-83
2022/01/01 07:06:00;;;;;;;52.50;28.10;;;11.30;87.90;;;;;;5032650;28;20049;-83
2022/01/01 07:08:27;;;;;;;50.28;28.30;;;11.30;87.90;;;;;;5033578;28;20059;-83
2022/01/01 07:10:54;;;;;;;51.60;27.05;;;11.30;87.90;;;;;;5033506;28;20506;-83
2022/01/01 07:13:21;;;;;;;51.33;26.52;;;11.30;87.90;;;;;;5033326;28;20421;-83
2022/01/01 07:15:48;;;;;;;47.67;26.95;;;11.20;87.90;;;;;;5031688;28;20060;-84
2022/01/01 07:18:15;;;;;;;45.42;26.77;;;11.30;87.90;;;;;;5032114;28;20053;-84
2022/01/01 07:20:42;;;;;;;51.67;26.15;;;11.30;87.80;;;;;;5031562;28;20042;-84
2022/01/01 07:23:10;;;;;;;47.15;26.08;;;11.30;87.90;;;;;;5028714;28;20410;-83
2022/01/01 07:25:37;;;;;;;52.42;27.02;;;11.20;87.90;;;;;;5033204;28;20056;-84
2022/01/01 07:28:04;;;;;;;52.33;26.83;;;11.20;87.80;;;;;;5032858;28;20082;-83
2022/01/01 07:30:31;;;;;;;49.90;25.50;;;11.20;87.90;;;;;;5033600;28;20042;-84
2022/01/01 07:32:58;;;;;;;48.95;24.80;;;11.20;87.90;;;;;;5029810;28;20046;-83
2022/01/01 07:35:25;;;;;;;48.63;25.13;;;11.20;87.90;;;;;;5032675;28;20502;-83
2022/01/01 07:37:52;;;;;;;49.53;25.20;;;11.20;87.80;;;;;;5032960;28;20050;-83
2022/01/01 07:40:20;;;;;;;46.60;23.20;;;11.20;87.90;;;;;;5033085;28;20125;-83
2022/01/01 07:42:47;;;;;;;44.47;23.42;;;11.20;87.90;;;;;;5017069;28;20498;-83
2022/01/01 07:45:16;;;;;;;47.60;23.58;;;11.20;87.90;;;;;;5028146;28;20050;-83
2022/01/01 07:47:43;;;;;;;46.22;24.88;;;11.20;87.90;;;;;;5033775;28;20053;-82
2022/01/01 07:50:10;;;;;;;49.83;24.13;;;11.20;87.80;;;;;;5032343;28;20049;-82
2022/01/01 07:52:38;;;;;;;48.78;24.20;;;11.10;87.80;;;;;;5032812;28;20060;-82
2022/01/01 07:55:06;;;;;;;49.22;25.02;;;11.20;87.80;;;;;;5032886;28;20048;-82
2022/01/01 07:57:33;;;;;;;49.58;24.70;;;11.20;87.90;;;;;;5032502;28;20056;-82
2022/01/01 08:00:01;;;;;;;48.17;22.98;;;11.10;87.80;;;;;;5032001;28;20056;-82
2022/01/01 08:02:28;;;;;;;46.28;23.33;;;11.10;87.80;;;;;;5032242;28;20059;-82
2022/01/01 08:04:55;;;;;;;44.00;22.92;;;11.10;87.80;;;;;;5032014;28;20417;-81
2022/01/01 08:07:22;;;;;;;47.35;24.25;;;11.20;87.80;;;;;;5032460;28;20473;-82
2022/01/01 08:10:11;;;;;;;43.42;22.30;;;11.10;87.80;;;;;;5033826;28;20045;-83
2022/01/01 08:12:38;;;;;;;44.90;22.95;;;11.10;87.80;;;;;;5032291;28;20057;-82
2022/01/01 08:15:06;;;;;;;44.60;23.40;;;11.10;87.80;;;;;;5031900;28;20052;-82
2022/01/01 08:17:33;;;;;;;44.42;21.90;;;11.10;87.80;;;;;;5031905;28;20049;-83
2022/01/01 08:20:01;;;;;;;51.28;23.70;;;11.10;87.80;;;;;;5031987;28;20498;-83
2022/01/01 08:22:29;;;;;;;49.17;22.73;;;11.10;87.80;;;;;;5032588;28;20045;-82
2022/01/01 08:24:56;;;;;;;42.75;22.85;;;11.10;87.90;;;;;;5032594;28;20417;-83
2022/01/01 08:27:23;;;;;;;45.30;22.88;;;11.00;87.90;;;;;;5031159;28;20156;-83
2022/01/01 08:29:50;;;;;;;43.92;22.02;;;11.10;87.80;;;;;;5032345;28;20510;-82
2022/01/01 08:32:17;;;;;;;41.15;21.17;;;11.10;87.90;;;;;;5032230;28;20056;-83
2022/01/01 08:34:45;;;;;;;44.47;21.83;;;11.10;87.90;;;;;;5031772;28;20041;-82
2022/01/01 08:37:12;;;;;;;48.53;23.00;;;11.10;87.90;;;;;;5032598;28;20504;-82
2022/01/01 08:39:39;;;;;;;45.22;21.73;;;11.10;87.90;;;;;;5026846;28;20038;-83
2022/01/01 08:42:06;;;;;;;48.88;22.67;;;11.10;87.90;;;;;;5030742;28;20057;-83
2022/01/01 08:44:33;;;;;;;42.63;21.35;;;11.10;87.90;;;;;;5028320;28;20498;-82
2022/01/01 08:47:00;;;;;;;43.65;23.05;;;11.00;87.90;;;;;;5025590;28;20498;-83
2022/01/01 08:49:27;;;;;;;42.97;22.77;;;11.00;87.90;;;;;;5020069;28;20037;-84
2022/01/01 08:51:57;;;;;;;45.97;23.52;;;11.10;88.00;;;;;;5016443;28;20403;-82
2022/01/01 08:54:24;;;;;;;42.47;23.05;;;11.10;87.90;;;;;;5018166;28;20054;-82
2022/01/01 08:56:51;;;;;;;46.22;21.92;;;11.10;88.00;;;;;;5029788;28;20490;-82
2022/01/01 08:59:19;;;;;;;47.92;23.23;;;11.10;88.00;;;;;;5022340;28;20046;-82
2022/01/01 09:01:46;;;;;;;45.70;23.73;;;11.10;88.00;;;;;;5019621;28;20042;-82
2022/01/01 09:04:13;;;;;;;43.80;22.77;;;11.10;88.00;;;;;;5018636;28;20050;-82
2022/01/01 09:06:40;;;;;;;40.97;21.33;;;11.10;88.00;;;;;;5015650;28;20061;-83
2022/01/01 09:09:07;;;;;;;44.65;23.55;;;11.10;88.00;;;;;;5019488;28;20049;-83
2022/01/01 09:11:34;;;;;;;41.78;22.08;;;11.10;88.00;;;;;;5019385;28;20061;-83
2022/01/01 09:14:02;;;;;;;38.97;22.40;;;11.10;88.00;;;;;;5019423;28;20049;-83
2022/01/01 09:16:29;;;;;;;40.53;22.13;;;11.10;88.00;;;;;;5019552;28;20405;-83
2022/01/01 09:18:57;;;;;;;38.45;19.80;;;11.20;88.00;;;;;;5016377;28;20458;-82
2022/01/01 09:21:26;;;;;;;38.47;20.15;;;11.20;88.00;;;;;;5017622;28;20046;-82
2022/01/01 09:23:55;;;;;;;36.20;19.75;;;11.10;88.00;;;;;;5029568;28;20052;-82
2022/01/01 09:26:22;;;;;;;36.40;19.40;;;11.20;88.00;;;;;;5021759;28;20056;-82
2022/01/01 09:28:49;;;;;;;33.55;18.90;;;11.20;88.00;;;;;;5018633;28;20437;-82
2022/01/01 09:31:16;;;;;;;33.33;19.70;;;11.20;88.00;;;;;;5018640;28;20041;-82
2022/01/01 09:33:43;;;;;;;31.65;18.83;;;11.20;88.00;;;;;;5015382;28;20065;-83
2022/01/01 09:36:14;;;;;;;31.17;18.17;;;11.20;88.00;;;;;;5029994;28;20045;-83
2022/01/01 09:38:42;;;;;;;27.60;17.27;;;11.20;87.90;;;;;;5018990;28;20038;-83
2022/01/01 09:41:10;;;;;;;30.02;17.88;;;11.20;88.00;;;;;;5018947;28;20050;-82
2022/01/01 09:43:37;;;;;;;31.70;17.65;;;11.20;88.00;;;;;;5018544;28;20037;-83
2022/01/01 09:46:04;;;;;;;33.70;17.85;;;11.20;88.00;;;;;;5016156;28;20068;-83
2022/01/01 09:48:32;;;;;;;29.90;17.38;;;11.20;88.00;;;;;;5030465;28;20055;-82
2022/01/01 09:51:03;;;;;;;34.50;17.70;;;11.20;88.00;;;;;;5018896;28;20053;-82
2022/01/01 09:53:31;;;;;;;32.00;17.58;;;11.30;88.00;;;;;;5017474;28;20048;-83
2022/01/01 09:56:01;;;;;;;31.02;16.60;;;11.30;88.00;;;;;;5018638;28;20064;-83
2022/01/01 09:58:31;;;;;;;30.00;16.67;;;11.30;88.00;;;;;;5018098;28;20045;-82
2022/01/01 10:00:59;;;;;;;29.88;16.67;;;11.30;88.10;;;;;;5015524;28;20414;-82
2022/01/01 10:03:34;;;;;;;29.05;17.55;;;11.40;88.10;;;;;;5016151;28;20048;-82
2022/01/01 10:06:12;;;;;;;32.63;17.55;;;11.40;88.10;;;;;;5018218;28;20080;-83
2022/01/01 10:08:41;;;;;;;29.50;17.50;;;11.40;88.10;;;;;;5018503;28;20497;-82
2022/01/01 10:11:09;;;;;;;29.02;17.15;;;11.40;88.10;;;;;;5018405;28;20041;-82
2022/01/01 10:13:38;;;;;;;32.92;18.02;;;11.50;88.10;;;;;;5017306;28;20388;-82
2022/01/01 10:16:08;;;;;;;30.15;16.73;;;11.60;88.10;;;;;;5029520;28;20399;-82
2022/01/01 10:18:37;;;;;;;27.90;16.45;;;11.60;88.00;;;;;;5018162;28;20417;-82
2022/01/01 10:21:16;;;;;;;26.95;16.60;;;11.70;88.00;;;;;;5028126;28;20449;-82
2022/01/01 10:23:45;;;;;;;28.05;16.25;;;11.80;88.00;;;;;;5014542;28;20117;-82
2022/01/01 10:29:08;;;;;;;24.73;15.50;;;11.90;87.90;;;;;;5017428;28;20054;-82
2022/01/01 10:31:36;;;;;;;24.73;15.55;;;11.90;87.80;;;;;;5017728;28;20045;-82
2022/01/01 10:34:15;;;;;;;22.67;14.48;;;12.00;87.70;;;;;;5015412;28;20083;-83
2022/01/01 10:36:47;;;;;;;24.25;14.80;;;12.10;87.60;;;;;;5019380;28;20049;-83
2022/01/01 10:39:18;;;;;;;26.98;14.80;;;12.10;87.50;;;;;;5027909;28;20061;-83
2022/01/01 10:41:53;;;;;;;25.48;14.70;;;12.20;87.50;;;;;;5026550;28;20498;-82
2022/01/01 10:44:28;;;;;;;18.42;13.45;;;12.20;87.40;;;;;;5020351;28;20046;-82
2022/01/01 10:47:12;;;;;;;29.88;14.20;;;12.30;87.40;;;;;;5017168;28;20141;-82
2022/01/01 10:52:16;;;;;;;19.40;13.80;;;12.30;87.20;;;;;;5016283;28;20573;-82
2022/01/01 10:55:05;;;;;;;20.85;14.40;;;12.40;87.20;;;;;;5013156;28;20048;-82
2022/01/01 10:57:38;;;;;;;22.20;14.07;;;12.50;87.10;;;;;;5029090;28;20049;-82
2022/01/01 11:00:18;;;;;;;22.17;14.17;;;12.50;87.00;;;;;;5016708;28;20046;-82
2022/01/01 11:02:50;;;;;;;21.58;14.20;;;12.60;86.90;;;;;;5026403;28;20449;-82
2022/01/01 11:05:28;;;;;;;20.98;13.43;;;12.60;86.80;;;;;;5019762;28;20129;-83
2022/01/01 11:07:55;;;;;;;19.75;13.80;;;12.70;86.60;;;;;;5016925;28;20045;-83
2022/01/01 11:10:24;;;;;;;19.65;13.60;;;12.70;86.50;;;;;;5014093;28;20038;-83
2022/01/01 11:12:52;;;;;;;17.95;13.65;;;12.70;86.40;;;;;;5028206;28;20051;-83
2022/01/01 11:15:20;;;;;;;17.05;11.93;;;12.70;86.30;;;;;;5015832;28;20048;-82
2022/01/01 11:17:49;;;;;;;17.30;12.40;;;12.70;86.20;;;;;;5017666;28;20058;-83
2022/01/01 11:20:17;;;;;;;20.67;12.40;;;12.70;86.10;;;;;;5016403;28;20048;-83
2022/01/01 11:22:47;;;;;;;16.75;12.18;;;12.80;86.10;;;;;;5016893;28;20050;-83
2022/01/01 11:25:15;;;;;;;17.27;11.88;;;12.80;86.10;;;;;;5015672;28;20069;-83
2022/01/01 11:27:44;;;;;;;20.38;13.55;;;12.80;86.00;;;;;;5013105;28;20056;-83
2022/01/01 11:30:13;;;;;;;16.38;12.23;;;12.90;86.00;;;;;;5016903;28;20129;-83
2022/01/01 11:32:49;;;;;;;19.50;11.68;;;12.90;85.90;;;;;;5017109;28;20053;-83
2022/01/01 11:35:21;;;;;;;20.05;11.15;;;12.90;85.90;;;;;;5017077;28;20068;-83
2022/01/01 11:38:08;;;;;;;15.13;10.93;;;12.90;85.80;;;;;;5017832;28;20505;-83
2022/01/01 11:41:03;;;;;;;14.65;10.13;;;13.00;85.70;;;;;;5024860;28;20513;-82
2022/01/01 11:43:41;;;;;;;15.55;10.60;;;13.00;85.60;;;;;;5026382;28;20076;-83
2022/01/01 11:46:08;;;;;;;15.73;10.38;;;13.10;85.60;;;;;;5015148;28;20046;-83
2022/01/01 11:48:43;;;;;;;17.83;10.55;;;13.10;85.50;;;;;;5013813;28;20517;-83
2022/01/01 11:51:21;;;;;;;12.85;10.13;;;13.10;85.40;;;;;;5016846;28;20045;-83
2022/01/01 11:54:19;;;;;;;15.43;9.73;;;13.20;85.30;;;;;;5017023;28;20054;-83
2022/01/01 11:56:49;;;;;;;17.55;10.65;;;13.20;85.30;;;;;;5011845;28;20053;-83
2022/01/01 11:59:22;;;;;;;14.40;9.65;;;13.20;85.30;;;;;;5016557;28;20137;-82
2022/01/01 12:01:54;;;;;;;15.10;10.18;;;13.30;85.20;;;;;;5016804;28;20041;-83
2022/01/01 12:04:31;;;;;;;18.93;9.93;;;13.30;85.20;;;;;;5016741;28;20121;-83
2022/01/01 12:07:18;;;;;;;13.55;8.60;;;13.30;85.10;;;;;;5013739;28;20054;-83
2022/01/01 12:10:06;;;;;;;16.95;8.85;;;13.30;85.10;;;;;;5028284;28;20399;-83
2022/01/01 12:12:53;;;;;;;13.00;8.15;;;13.40;85.10;;;;;;5028201;28;20410;-83
2022/01/01 12:15:51;;;;;;;14.95;8.73;;;13.40;85.00;;;;;;5027993;28;20049;-83
2022/01/01 12:18:23;;;;;;;14.55;8.13;;;13.40;85.00;;;;;;5031677;28;20045;-83
2022/01/01 12:21:03;;;;;;;14.80;7.35;;;13.40;84.90;;;;;;5015836;28;20516;-83
2022/01/01 12:23:36;;;;;;;15.15;7.13;;;13.50;84.80;;;;;;5019984;28;20058;-83
2022/01/01 12:26:14;;;;;;;13.18;7.35;;;13.50;84.70;;;;;;5020494;28;20038;-83
2022/01/01 12:28:44;;;;;;;9.68;7.10;;;13.50;84.60;;;;;;5020294;28;20482;-83
2022/01/01 12:31:14;;;;;;;12.15;7.13;;;13.50;84.60;;;;;;5019299;28;20051;-83
2022/01/01 12:33:54;;;;;;;10.93;6.03;;;13.50;84.50;;;;;;5016301;28;20047;-83
2022/01/01 12:36:27;;;;;;;11.40;6.25;;;13.60;84.50;;;;;;5018005;28;20072;-82
2022/01/01 12:38:57;;;;;;;12.95;6.07;;;13.70;84.40;;;;;;5030411;28;20041;-83
2022/01/01 12:41:31;;;;;;;12.20;6.22;;;13.70;84.30;;;;;;5022481;28;20050;-82
2022/01/01 12:44:01;;;;;;;11.10;6.25;;;13.70;84.20;;;;;;5019964;28;20505;-82
2022/01/01 12:46:37;;;;;;;12.88;6.50;;;13.80;84.20;;;;;;5051528;28;20048;-83
2022/01/01 12:49:07;;;;;;;10.63;5.88;;;13.80;84.10;;;;;;5017083;28;20578;-83
2022/01/01 12:51:39;;;;;;;10.63;5.75;;;13.90;84.00;;;;;;5031171;28;20458;-83